sensor_id;sensor_type;location;lat;lon;timestamp;pressure;altitude;pressure_sealevel;temperature;humidity
31285;BME280;56605;51.516;6.742;2023-04-24T00:01:27;99852.31;;;10.52;100.00
31285;BME280;56605;51.516;6.742;2023-04-24T00:03:54;99847.44;;;10.56;100.00
31285;BME280;56605;51.516;6.742;2023-04-24T00:06:21;99864.38;;;10.48;100.00
31285;BME280;56605;51.516;6.742;2023-04-24T00:08:48;99856.19;;;10.49;100.00
31285;BME280;56605;51.516;6.742;2023-04-24T00:11:14;99851.38;;;10.45;100.00
31285;BME280;56605;51.516;6.742;2023-04-24T00:13:39;99852.78;;;10.40;100.00
31285;BME280;56605;51.516;6.742;2023-04-24T00:16:04;99865.41;;;10.32;100.00
31285;BME280;56605;51.516;6.742;2023-04-24T00:18:30;99869.25;;;10.29;100.00
31285;BME280;56605;51.516;6.742;2023-04-24T00:20:56;99871.09;;;10.28;100.00
31285;BME280;56605;51.516;6.742;2023-04-24T00:23:21;99876.16;;;10.23;100.00
31285;BME280;56605;51.516;6.742;2023-04-24T00:25:46;99874.97;;;10.26;100.00
31285;BME280;56605;51.516;6.742;2023-04-24T00:28:11;99867.34;;;10.23;100.00
31285;BME280;56605;51.516;6.742;2023-04-24T00:30:37;99875.66;;;9.98;100.00
31285;BME280;56605;51.516;6.742;2023-04-24T00:33:02;99870.31;;;9.98;100.00
31285;BME280;56605;51.516;6.742;2023-04-24T00:35:28;99875.38;;;9.93;100.00
31285;BME280;56605;51.516;6.742;2023-04-24T00:37:53;99869.97;;;9.86;100.00
31285;BME280;56605;51.516;6.742;2023-04-24T00:40:18;99873.00;;;9.83;100.00
31285;BME280;56605;51.516;6.742;2023-04-24T00:42:44;99885.03;;;9.79;100.00
31285;BME280;56605;51.516;6.742;2023-04-24T00:45:10;99872.25;;;9.74;100.00
31285;BME280;56605;51.516;6.742;2023-04-24T00:47:35;99885.47;;;9.67;100.00
31285;BME280;56605;51.516;6.742;2023-04-24T00:50:05;99886.41;;;9.59;100.00
31285;BME280;56605;51.516;6.742;2023-04-24T00:52:31;99882.78;;;9.52;100.00
31285;BME280;56605;51.516;6.742;2023-04-24T00:54:57;99878.59;;;9.58;100.00
31285;BME280;56605;51.516;6.742;2023-04-24T00:57:23;99890.25;;;9.57;100.00
31285;BME280;56605;51.516;6.742;2023-04-24T00:59:50;99890.41;;;9.55;100.00
31285;BME280;56605;51.516;6.742;2023-04-24T01:02:15;99896.50;;;9.49;100.00
31285;BME280;56605;51.516;6.742;2023-04-24T01:04:41;99894.03;;;9.47;100.00
31285;BME280;56605;51.516;6.742;2023-04-24T01:07:08;99894.19;;;9.46;100.00
31285;BME280;56605;51.516;6.742;2023-04-24T01:09:39;99889.03;;;9.44;100.00
31285;BME280;56605;51.516;6.742;2023-04-24T01:12:06;99890.88;;;9.44;100.00
31285;BME280;56605;51.516;6.742;2023-04-24T01:14:31;99881.22;;;9.43;100.00
31285;BME280;56605;51.516;6.742;2023-04-24T01:16:57;99880.75;;;9.39;100.00
31285;BME280;56605;51.516;6.742;2023-04-24T01:19:23;99879.94;;;9.38;100.00
31285;BME280;56605;51.516;6.742;2023-04-24T01:21:51;99869.00;;;9.33;100.00
31285;BME280;56605;51.516;6.742;2023-04-24T01:24:18;99872.84;;;9.31;100.00
31285;BME280;56605;51.516;6.742;2023-04-24T01:26:44;99874.03;;;9.28;100.00
31285;BME280;56605;51.516;6.742;2023-04-24T01:29:10;99872.19;;;9.29;100.00
31285;BME280;56605;51.516;6.742;2023-04-24T01:31:36;99875.16;;;9.34;100.00
31285;BME280;56605;51.516;6.742;2023-04-24T01:34:02;99883.16;;;9.34;100.00
31285;BME280;56605;51.516;6.742;2023-04-24T01:36:28;99888.16;;;9.29;100.00
31285;BME280;56605;51.516;6.742;2023-04-24T01:38:56;99876.13;;;9.18;100.00
31285;BME280;56605;51.516;6.742;2023-04-24T01:41:22;99883.47;;;9.16;100.00
31285;BME280;56605;51.516;6.742;2023-04-24T01:43:48;99873.75;;;9.23;100.00
31285;BME280;56605;51.516;6.742;2023-04-24T01:46:13;99879.16;;;9.15;100.00
31285;BME280;56605;51.516;6.742;2023-04-24T01:48:39;99873.13;;;9.21;100.00
31285;BME280;56605;51.516;6.742;2023-04-24T01:51:05;99882.09;;;9.20;100.00
31285;BME280;56605;51.516;6.742;2023-04-24T01:53:30;99870.22;;;9.07;100.00
31285;BME280;56605;51.516;6.742;2023-04-24T01:55:55;99881.72;;;9.23;100.00
31285;BME280;56605;51.516;6.742;2023-04-24T01:58:21;99873.47;;;9.18;100.00
31285;BME280;56605;51.516;6.742;2023-04-24T02:00:47;99878.63;;;9.19;100.00
31285;BME280;56605;51.516;6.742;2023-04-24T02:03:12;99871.56;;;9.26;100.00
31285;BME280;56605;51.516;6.742;2023-04-24T02:05:38;99887.47;;;9.35;100.00
31285;BME280;56605;51.516;6.742;2023-04-24T02:08:03;99881.09;;;9.21;100.00
31285;BME280;56605;51.516;6.742;2023-04-24T02:10:28;99889.72;;;9.23;100.00
31285;BME280;56605;51.516;6.742;2023-04-24T02:12:54;99887.94;;;9.15;100.00
31285;BME280;56605;51.516;6.742;2023-04-24T02:15:19;99900.63;;;9.13;100.00
31285;BME280;56605;51.516;6.742;2023-04-24T02:17:44;99886.03;;;9.09;100.00
31285;BME280;56605;51.516;6.742;2023-04-24T02:20:11;99894.41;;;9.21;100.00
31285;BME280;56605;51.516;6.742;2023-04-24T02:22:36;99891.34;;;9.09;100.00
31285;BME280;56605;51.516;6.742;2023-04-24T02:25:01;99877.84;;;9.10;100.00
31285;BME280;56605;51.516;6.742;2023-04-24T02:27:27;99879.19;;;9.06;100.00
31285;BME280;56605;51.516;6.742;2023-04-24T02:29:52;99879.19;;;9.06;100.00
31285;BME280;56605;51.516;6.742;2023-04-24T02:32:17;99897.38;;;9.03;100.00
31285;BME280;56605;51.516;6.742;2023-04-24T02:34:43;99889.22;;;9.04;100.00
31285;BME280;56605;51.516;6.742;2023-04-24T02:37:08;99887.25;;;8.98;100.00
31285;BME280;56605;51.516;6.742;2023-04-24T02:39:33;99883.75;;;8.97;100.00
31285;BME280;56605;51.516;6.742;2023-04-24T02:41:59;99870.34;;;8.91;100.00
31285;BME280;56605;51.516;6.742;2023-04-24T02:44:24;99873.72;;;8.84;100.00
31285;BME280;56605;51.516;6.742;2023-04-24T02:46:50;99884.38;;;8.84;100.00
31285;BME280;56605;51.516;6.742;2023-04-24T02:49:15;99868.75;;;8.81;100.00
31285;BME280;56605;51.516;6.742;2023-04-24T02:51:40;99880.41;;;8.80;100.00
31285;BME280;56605;51.516;6.742;2023-04-24T02:54:07;99877.56;;;8.82;100.00
31285;BME280;56605;51.516;6.742;2023-04-24T02:56:33;99875.09;;;8.80;100.00
31285;BME280;56605;51.516;6.742;2023-04-24T02:58:58;99893.88;;;8.79;100.00
31285;BME280;56605;51.516;6.742;2023-04-24T03:01:23;99890.38;;;8.78;100.00
31285;BME280;56605;51.516;6.742;2023-04-24T03:03:48;99891.06;;;8.80;100.00
31285;BME280;56605;51.516;6.742;2023-04-24T03:06:14;99898.19;;;8.80;100.00
31285;BME280;56605;51.516;6.742;2023-04-24T03:08:40;99897.38;;;8.79;100.00
31285;BME280;56605;51.516;6.742;2023-04-24T03:11:05;99898.09;;;8.73;100.00
31285;BME280;56605;51.516;6.742;2023-04-24T03:13:31;99902.22;;;8.75;100.00
31285;BME280;56605;51.516;6.742;2023-04-24T03:15:56;99904.34;;;8.80;100.00
31285;BME280;56605;51.516;6.742;2023-04-24T03:18:21;99907.50;;;8.84;100.00
31285;BME280;56605;51.516;6.742;2023-04-24T03:20:47;99908.31;;;8.84;100.00
31285;BME280;56605;51.516;6.742;2023-04-24T03:23:12;99909.31;;;8.83;100.00
31285;BME280;56605;51.516;6.742;2023-04-24T03:25:37;99912.16;;;8.82;100.00
31285;BME280;56605;51.516;6.742;2023-04-24T03:28:03;99910.97;;;8.84;100.00
31285;BME280;56605;51.516;6.742;2023-04-24T03:30:28;99907.97;;;8.87;100.00
31285;BME280;56605;51.516;6.742;2023-04-24T03:32:53;99913.94;;;8.90;100.00
31285;BME280;56605;51.516;6.742;2023-04-24T03:35:19;99916.63;;;8.90;100.00
31285;BME280;56605;51.516;6.742;2023-04-24T03:37:44;99907.97;;;8.87;100.00
31285;BME280;56605;51.516;6.742;2023-04-24T03:40:09;99908.31;;;8.84;100.00
31285;BME280;56605;51.516;6.742;2023-04-24T03:42:35;99901.00;;;8.86;100.00
31285;BME280;56605;51.516;6.742;2023-04-24T03:45:00;99902.81;;;8.86;100.00
31285;BME280;56605;51.516;6.742;2023-04-24T03:47:25;99915.78;;;8.89;100.00
31285;BME280;56605;51.516;6.742;2023-04-24T03:49:51;99927.25;;;8.90;100.00
31285;BME280;56605;51.516;6.742;2023-04-24T03:52:16;99911.13;;;8.91;100.00
31285;BME280;56605;51.516;6.742;2023-04-24T03:54:42;99918.75;;;8.94;100.00
31285;BME280;56605;51.516;6.742;2023-04-24T03:57:07;99915.59;;;8.91;100.00
31285;BME280;56605;51.516;6.742;2023-04-24T03:59:32;99913.94;;;8.90;100.00
31285;BME280;56605;51.516;6.742;2023-04-24T04:01:57;99907.31;;;8.85;100.00
31285;BME280;56605;51.516;6.742;2023-04-24T04:04:23;99913.63;;;8.84;100.00
31285;BME280;56605;51.516;6.742;2023-04-24T04:06:48;99917.94;;;8.85;100.00
31285;BME280;56605;51.516;6.742;2023-04-24T04:09:14;99908.97;;;8.86;100.00
31285;BME280;56605;51.516;6.742;2023-04-24T04:11:39;99911.13;;;8.91;100.00
31285;BME280;56605;51.516;6.742;2023-04-24T04:14:04;99912.25;;;8.97;100.00
31285;BME280;56605;51.516;6.742;2023-04-24T04:16:30;99916.03;;;9.03;100.00
31285;BME280;56605;51.516;6.742;2023-04-24T04:18:55;99924.34;;;8.99;100.00
31285;BME280;56605;51.516;6.742;2023-04-24T04:21:21;99924.25;;;8.93;100.00
31285;BME280;56605;51.516;6.742;2023-04-24T04:23:46;99923.41;;;8.92;100.00
31285;BME280;56605;51.516;6.742;2023-04-24T04:26:12;99922.03;;;8.96;100.00
31285;BME280;56605;51.516;6.742;2023-04-24T04:28:38;99925.06;;;8.93;100.00
31285;BME280;56605;51.516;6.742;2023-04-24T04:31:04;99925.59;;;8.88;100.00
31285;BME280;56605;51.516;6.742;2023-04-24T04:33:29;99927.78;;;8.85;100.00
31285;BME280;56605;51.516;6.742;2023-04-24T04:35:54;99930.97;;;8.80;100.00
31285;BME280;56605;51.516;6.742;2023-04-24T04:38:23;99932.28;;;8.84;100.00
31285;BME280;56605;51.516;6.742;2023-04-24T04:40:49;99924.81;;;8.80;100.00
31285;BME280;56605;51.516;6.742;2023-04-24T04:43:14;99921.97;;;8.81;100.00
31285;BME280;56605;51.516;6.742;2023-04-24T04:45:41;99936.28;;;8.80;100.00
31285;BME280;56605;51.516;6.742;2023-04-24T04:48:08;99939.25;;;8.85;100.00
31285;BME280;56605;51.516;6.742;2023-04-24T04:50:34;99939.25;;;8.85;100.00
31285;BME280;56605;51.516;6.742;2023-04-24T04:53:00;99942.28;;;8.82;100.00
31285;BME280;56605;51.516;6.742;2023-04-24T04:55:25;99933.28;;;8.83;100.00
31285;BME280;56605;51.516;6.742;2023-04-24T04:57:51;99941.09;;;8.85;100.00
31285;BME280;56605;51.516;6.742;2023-04-24T05:00:16;99933.13;;;8.85;100.00
31285;BME280;56605;51.516;6.742;2023-04-24T05:02:42;99937.06;;;8.89;100.00
31285;BME280;56605;51.516;6.742;2023-04-24T05:05:07;99937.06;;;8.89;100.00
31285;BME280;56605;51.516;6.742;2023-04-24T05:07:33;99937.59;;;8.84;100.00
31285;BME280;56605;51.516;6.742;2023-04-24T05:09:58;99949.44;;;8.82;100.00
31285;BME280;56605;51.516;6.742;2023-04-24T05:12:24;99940.16;;;8.69;100.00
31285;BME280;56605;51.516;6.742;2023-04-24T05:14:49;99936.53;;;8.70;100.00
31285;BME280;56605;51.516;6.742;2023-04-24T05:17:15;99943.50;;;8.71;100.00
31285;BME280;56605;51.516;6.742;2023-04-24T05:19:41;99947.00;;;8.72;100.00
31285;BME280;56605;51.516;6.742;2023-04-24T05:22:06;99946.00;;;8.73;100.00
31285;BME280;56605;51.516;6.742;2023-04-24T05:24:36;99940.91;;;8.63;100.00
31285;BME280;56605;51.516;6.742;2023-04-24T05:27:04;99939.88;;;8.64;100.00
31285;BME280;56605;51.516;6.742;2023-04-24T05:29:30;99946.84;;;8.65;100.00
31285;BME280;56605;51.516;6.742;2023-04-24T05:31:57;99944.06;;;8.58;100.00
31285;BME280;56605;51.516;6.742;2023-04-24T05:34:22;99950.19;;;8.59;100.00
31285;BME280;56605;51.516;6.742;2023-04-24T05:36:48;99947.38;;;8.60;100.00
31285;BME280;56605;51.516;6.742;2023-04-24T05:39:13;99953.88;;;8.58;100.00
31285;BME280;56605;51.516;6.742;2023-04-24T05:41:39;99947.69;;;8.66;100.00
31285;BME280;56605;51.516;6.742;2023-04-24T05:44:04;99950.03;;;8.60;100.00
31285;BME280;56605;51.516;6.742;2023-04-24T05:46:29;99950.56;;;8.56;100.00
31285;BME280;56605;51.516;6.742;2023-04-24T05:48:55;99951.38;;;8.56;100.00
31285;BME280;56605;51.516;6.742;2023-04-24T05:51:20;99951.06;;;8.51;100.00
31285;BME280;56605;51.516;6.742;2023-04-24T05:53:45;99963.06;;;8.47;100.00
31285;BME280;56605;51.516;6.742;2023-04-24T05:56:11;99942.19;;;8.27;100.00
31285;BME280;56605;51.516;6.742;2023-04-24T05:58:36;99968.78;;;8.27;100.00
31285;BME280;56605;51.516;6.742;2023-04-24T06:01:02;99960.19;;;8.08;100.00
31285;BME280;56605;51.516;6.742;2023-04-24T06:03:28;99964.69;;;8.08;100.00
31285;BME280;56605;51.516;6.742;2023-04-24T06:05:53;99966.34;;;8.01;100.00
31285;BME280;56605;51.516;6.742;2023-04-24T06:08:19;99965.38;;;7.93;100.00
31285;BME280;56605;51.516;6.742;2023-04-24T06:10:44;99968.88;;;7.85;100.00
31285;BME280;56605;51.516;6.742;2023-04-24T06:13:10;99958.91;;;7.79;100.00
31285;BME280;56605;51.516;6.742;2023-04-24T06:15:36;99968.06;;;7.77;100.00
31285;BME280;56605;51.516;6.742;2023-04-24T06:18:01;99975.53;;;7.81;100.00
31285;BME280;56605;51.516;6.742;2023-04-24T06:20:27;99962.88;;;7.83;100.00
31285;BME280;56605;51.516;6.742;2023-04-24T06:22:52;99958.28;;;7.77;100.00
31285;BME280;56605;51.516;6.742;2023-04-24T06:25:17;99973.88;;;7.80;100.00
31285;BME280;56605;51.516;6.742;2023-04-24T06:27:44;99975.69;;;7.96;100.00
31285;BME280;56605;51.516;6.742;2023-04-24T06:30:09;99979.00;;;7.90;100.00
31285;BME280;56605;51.516;6.742;2023-04-24T06:32:35;99975.19;;;7.84;100.00
31285;BME280;56605;51.516;6.742;2023-04-24T06:35:00;99972.53;;;7.84;100.00
31285;BME280;56605;51.516;6.742;2023-04-24T06:37:25;99960.22;;;7.92;100.00
31285;BME280;56605;51.516;6.742;2023-04-24T06:39:50;99972.50;;;7.93;100.00
31285;BME280;56605;51.516;6.742;2023-04-24T06:42:16;99970.03;;;7.99;100.00
31285;BME280;56605;51.516;6.742;2023-04-24T06:44:41;99955.56;;;7.94;100.00
31285;BME280;56605;51.516;6.742;2023-04-24T06:47:07;99957.91;;;7.89;100.00
31285;BME280;56605;51.516;6.742;2023-04-24T06:49:37;99958.75;;;7.89;100.00
31285;BME280;56605;51.516;6.742;2023-04-24T06:52:03;99971.03;;;7.90;100.00
31285;BME280;56605;51.516;6.742;2023-04-24T06:54:29;99966.03;;;7.95;100.00
31285;BME280;56605;51.516;6.742;2023-04-24T06:56:54;99956.25;;;7.88;100.00
31285;BME280;56605;51.516;6.742;2023-04-24T06:59:20;99973.34;;;7.85;100.00
31285;BME280;56605;51.516;6.742;2023-04-24T07:01:45;99975.38;;;7.83;100.00
31285;BME280;56605;51.516;6.742;2023-04-24T07:04:11;99960.72;;;7.87;100.00
31285;BME280;56605;51.516;6.742;2023-04-24T07:06:38;99974.84;;;7.79;100.00
31285;BME280;56605;51.516;6.742;2023-04-24T07:09:04;99953.47;;;7.72;100.00
31285;BME280;56605;51.516;6.742;2023-04-24T07:11:29;99970.72;;;7.68;100.00
31285;BME280;56605;51.516;6.742;2023-04-24T07:13:55;99958.78;;;7.72;100.00
31285;BME280;56605;51.516;6.742;2023-04-24T07:16:20;99966.06;;;7.70;100.00
31285;BME280;56605;51.516;6.742;2023-04-24T07:18:46;99967.56;;;7.73;100.00
31285;BME280;56605;51.516;6.742;2023-04-24T07:21:11;99966.41;;;7.67;100.00
31285;BME280;56605;51.516;6.742;2023-04-24T07:23:36;99961.25;;;7.66;100.00
31285;BME280;56605;51.516;6.742;2023-04-24T07:26:02;99970.72;;;7.60;100.00
31285;BME280;56605;51.516;6.742;2023-04-24T07:28:27;99979.38;;;7.62;100.00
31285;BME280;56605;51.516;6.742;2023-04-24T07:30:56;99980.69;;;7.58;100.00
31285;BME280;56605;51.516;6.742;2023-04-24T07:33:21;99977.22;;;7.57;100.00
31285;BME280;56605;51.516;6.742;2023-04-24T07:35:47;99984.34;;;7.48;100.00
31285;BME280;56605;51.516;6.742;2023-04-24T07:38:12;99993.47;;;7.46;100.00
31285;BME280;56605;51.516;6.742;2023-04-24T07:40:38;99981.19;;;7.36;100.00
31285;BME280;56605;51.516;6.742;2023-04-24T07:43:03;99990.66;;;7.31;100.00
31285;BME280;56605;51.516;6.742;2023-04-24T07:45:28;99988.66;;;7.16;100.00
31285;BME280;56605;51.516;6.742;2023-04-24T07:47:54;99988.13;;;7.13;100.00
31285;BME280;56605;51.516;6.742;2023-04-24T07:50:19;99996.94;;;7.13;100.00
31285;BME280;56605;51.516;6.742;2023-04-24T07:52:45;99994.91;;;7.07;100.00
31285;BME280;56605;51.516;6.742;2023-04-24T07:55:10;99999.06;;;7.01;100.00
31285;BME280;56605;51.516;6.742;2023-04-24T07:57:36;100001.56;;;7.03;100.00
31285;BME280;56605;51.516;6.742;2023-04-24T08:00:03;100013.84;;;7.12;100.00
31285;BME280;56605;51.516;6.742;2023-04-24T08:02:28;100012.50;;;7.08;100.00
31285;BME280;56605;51.516;6.742;2023-04-24T08:04:54;100010.16;;;7.05;100.00
31285;BME280;56605;51.516;6.742;2023-04-24T08:07:20;100018.16;;;7.13;100.00
31285;BME280;56605;51.516;6.742;2023-04-24T08:09:45;100015.50;;;7.13;100.00
31285;BME280;56605;51.516;6.742;2023-04-24T08:12:10;100026.78;;;7.07;100.00
31285;BME280;56605;51.516;6.742;2023-04-24T08:14:36;100019.81;;;7.14;100.00
31285;BME280;56605;51.516;6.742;2023-04-24T08:17:01;100026.94;;;7.05;100.00
31285;BME280;56605;51.516;6.742;2023-04-24T08:19:27;100038.34;;;6.97;100.00
31285;BME280;56605;51.516;6.742;2023-04-24T08:21:52;100040.19;;;7.05;100.00
31285;BME280;56605;51.516;6.742;2023-04-24T08:24:18;100060.28;;;7.08;100.00
31285;BME280;56605;51.516;6.742;2023-04-24T08:26:43;100054.66;;;7.11;100.00
31285;BME280;56605;51.516;6.742;2023-04-24T08:29:09;100070.09;;;7.16;100.00
31285;BME280;56605;51.516;6.742;2023-04-24T08:31:34;100076.25;;;7.25;100.00
31285;BME280;56605;51.516;6.742;2023-04-24T08:34:00;100081.94;;;7.38;100.00
31285;BME280;56605;51.516;6.742;2023-04-24T08:36:26;100089.41;;;7.43;100.00
31285;BME280;56605;51.516;6.742;2023-04-24T08:38:52;100099.56;;;7.47;100.00
31285;BME280;56605;51.516;6.742;2023-04-24T08:41:18;100100.25;;;7.58;100.00
31285;BME280;56605;51.516;6.742;2023-04-24T08:43:45;100104.56;;;7.67;100.00
31285;BME280;56605;51.516;6.742;2023-04-24T08:46:12;100105.41;;;7.84;100.00
31285;BME280;56605;51.516;6.742;2023-04-24T08:48:38;100108.91;;;7.93;100.00
31285;BME280;56605;51.516;6.742;2023-04-24T08:51:07;100117.38;;;7.97;100.00
31285;BME280;56605;51.516;6.742;2023-04-24T08:53:33;100124.16;;;7.91;100.00
31285;BME280;56605;51.516;6.742;2023-04-24T08:56:00;100124.47;;;7.71;100.00
31285;BME280;56605;51.516;6.742;2023-04-24T08:58:26;100115.66;;;7.63;100.00
31285;BME280;56605;51.516;6.742;2023-04-24T09:00:54;100138.59;;;7.64;100.00
31285;BME280;56605;51.516;6.742;2023-04-24T09:03:21;100138.91;;;7.60;100.00
31285;BME280;56605;51.516;6.742;2023-04-24T09:05:48;100145.41;;;7.66;100.00
31285;BME280;56605;51.516;6.742;2023-04-24T09:08:16;100155.03;;;7.67;100.00
31285;BME280;56605;51.516;6.742;2023-04-24T09:10:42;100171.28;;;7.64;100.00
31285;BME280;56605;51.516;6.742;2023-04-24T09:13:08;100170.59;;;7.54;100.00
31285;BME280;56605;51.516;6.742;2023-04-24T09:15:37;100194.34;;;7.55;100.00
31285;BME280;56605;51.516;6.742;2023-04-24T09:18:03;100203.16;;;7.56;100.00
31285;BME280;56605;51.516;6.742;2023-04-24T09:20:29;100209.25;;;7.48;100.00
31285;BME280;56605;51.516;6.742;2023-04-24T09:22:54;100231.66;;;7.45;100.00
31285;BME280;56605;51.516;6.742;2023-04-24T09:25:21;100246.25;;;7.33;100.00
31285;BME280;56605;51.516;6.742;2023-04-24T09:27:47;100249.72;;;7.33;100.00
31285;BME280;56605;51.516;6.742;2023-04-24T09:30:13;100260.28;;;7.25;100.00
31285;BME280;56605;51.516;6.742;2023-04-24T09:32:39;100268.09;;;7.27;100.00
31285;BME280;56605;51.516;6.742;2023-04-24T09:35:12;100271.06;;;7.23;100.00
31285;BME280;56605;51.516;6.742;2023-04-24T09:37:40;100274.88;;;7.21;100.00
31285;BME280;56605;51.516;6.742;2023-04-24T09:42:38;100283.94;;;7.10;100.00
31285;BME280;56605;51.516;6.742;2023-04-24T09:45:08;100297.75;;;7.14;100.00
31285;BME280;56605;51.516;6.742;2023-04-24T09:47:38;100307.22;;;7.16;100.00
31285;BME280;56605;51.516;6.742;2023-04-24T09:52:40;100319.44;;;7.09;100.00
31285;BME280;56605;51.516;6.742;2023-04-24T09:55:11;100317.13;;;7.14;100.00
31285;BME280;56605;51.516;6.742;2023-04-24T09:57:46;100325.31;;;7.21;100.00
31285;BME280;56605;51.516;6.742;2023-04-24T10:00:12;100333.66;;;7.26;100.00
31285;BME280;56605;51.516;6.742;2023-04-24T10:02:38;100334.53;;;7.35;100.00
31285;BME280;56605;51.516;6.742;2023-04-24T10:05:04;100342.53;;;7.43;100.00
31285;BME280;56605;51.516;6.742;2023-04-24T10:07:32;100346.91;;;7.53;100.00
31285;BME280;56605;51.516;6.742;2023-04-24T10:09:58;100350.34;;;7.45;100.00
31285;BME280;56605;51.516;6.742;2023-04-24T10:12:24;100359.84;;;7.47;100.00
31285;BME280;56605;51.516;6.742;2023-04-24T10:14:50;100370.25;;;7.41;100.00
31285;BME280;56605;51.516;6.742;2023-04-24T10:17:16;100375.41;;;7.42;100.00
31285;BME280;56605;51.516;6.742;2023-04-24T10:19:43;100372.25;;;7.39;100.00
31285;BME280;56605;51.516;6.742;2023-04-24T10:22:09;100377.59;;;7.47;100.00
31285;BME280;56605;51.516;6.742;2023-04-24T10:24:34;100381.56;;;7.43;100.00
31285;BME280;56605;51.516;6.742;2023-04-24T10:27:02;100390.41;;;7.52;100.00
31285;BME280;56605;51.516;6.742;2023-04-24T10:29:29;100387.59;;;7.53;100.00
31285;BME280;56605;51.516;6.742;2023-04-24T10:31:56;100393.22;;;7.50;100.00
31285;BME280;56605;51.516;6.742;2023-04-24T10:34:22;100389.72;;;7.49;100.00
31285;BME280;56605;51.516;6.742;2023-04-24T10:36:51;100398.00;;;7.46;100.00
31285;BME280;56605;51.516;6.742;2023-04-24T10:39:17;100401.81;;;7.44;100.00
31285;BME280;56605;51.516;6.742;2023-04-24T10:41:43;100400.72;;;7.55;100.00
31285;BME280;56605;51.516;6.742;2023-04-24T10:44:16;100401.41;;;7.57;100.00
31285;BME280;56605;51.516;6.742;2023-04-24T10:46:46;100403.81;;;7.68;100.00
31285;BME280;56605;51.516;6.742;2023-04-24T10:49:27;100415.47;;;7.76;100.00
31285;BME280;56605;51.516;6.742;2023-04-24T10:51:54;100420.19;;;7.90;100.00
31285;BME280;56605;51.516;6.742;2023-04-24T10:54:27;100414.31;;;8.13;100.00
31285;BME280;56605;51.516;6.742;2023-04-24T10:56:53;100420.94;;;8.52;100.00
31285;BME280;56605;51.516;6.742;2023-04-24T10:59:38;100423.56;;;9.04;100.00
31285;BME280;56605;51.516;6.742;2023-04-24T11:02:06;100414.25;;;9.41;100.00
31285;BME280;56605;51.516;6.742;2023-04-24T11:04:32;100416.16;;;9.89;100.00
31285;BME280;56605;51.516;6.742;2023-04-24T11:06:58;100420.53;;;9.73;100.00
31285;BME280;56605;51.516;6.742;2023-04-24T11:09:27;100414.38;;;10.21;100.00
31285;BME280;56605;51.516;6.742;2023-04-24T11:12:07;100417.09;;;10.05;100.00
31285;BME280;56605;51.516;6.742;2023-04-24T11:17:34;100418.25;;;9.12;100.00
31285;BME280;56605;51.516;6.742;2023-04-24T11:20:07;100430.53;;;8.88;100.00
31285;BME280;56605;51.516;6.742;2023-04-24T11:22:34;100443.34;;;8.84;100.00
31285;BME280;56605;51.516;6.742;2023-04-24T11:25:01;100445.47;;;8.72;100.00
31285;BME280;56605;51.516;6.742;2023-04-24T11:27:47;100469.56;;;8.62;100.00
31285;BME280;56605;51.516;6.742;2023-04-24T11:30:20;100464.63;;;8.41;100.00
31285;BME280;56605;51.516;6.742;2023-04-24T11:32:50;100468.75;;;8.35;100.00
31285;BME280;56605;51.516;6.742;2023-04-24T11:35:21;100463.75;;;8.24;100.00
31285;BME280;56605;51.516;6.742;2023-04-24T11:37:51;100469.63;;;8.44;100.00
31285;BME280;56605;51.516;6.742;2023-04-24T11:40:19;100472.06;;;8.64;100.00
31285;BME280;56605;51.516;6.742;2023-04-24T11:42:50;100475.47;;;8.91;100.00
31285;BME280;56605;51.516;6.742;2023-04-24T11:45:18;100479.97;;;8.99;100.00
31285;BME280;56605;51.516;6.742;2023-04-24T11:47:44;100483.31;;;9.09;100.00
31285;BME280;56605;51.516;6.742;2023-04-24T11:50:12;100483.66;;;9.15;100.00
31285;BME280;56605;51.516;6.742;2023-04-24T11:52:43;100489.84;;;9.23;100.00
31285;BME280;56605;51.516;6.742;2023-04-24T11:57:43;100499.97;;;9.20;100.00
31285;BME280;56605;51.516;6.742;2023-04-24T12:00:24;100497.16;;;9.21;100.00
31285;BME280;56605;51.516;6.742;2023-04-24T12:02:51;100507.00;;;9.21;100.00
31285;BME280;56605;51.516;6.742;2023-04-24T12:05:21;100511.13;;;9.15;100.00
31285;BME280;56605;51.516;6.742;2023-04-24T12:07:46;100511.59;;;9.02;100.00
31285;BME280;56605;51.516;6.742;2023-04-24T12:10:12;100531.88;;;8.95;100.00
31285;BME280;56605;51.516;6.742;2023-04-24T12:12:37;100514.50;;;8.74;100.00
31285;BME280;56605;51.516;6.742;2023-04-24T12:15:07;100526.31;;;8.71;100.00
31285;BME280;56605;51.516;6.742;2023-04-24T12:17:34;100528.13;;;8.62;100.00
31285;BME280;56605;51.516;6.742;2023-04-24T12:20:00;100535.47;;;8.69;100.00
31285;BME280;56605;51.516;6.742;2023-04-24T12:22:26;100537.50;;;8.83;100.00
31285;BME280;56605;51.516;6.742;2023-04-24T12:25:04;100541.41;;;9.06;100.00
31285;BME280;56605;51.516;6.742;2023-04-24T12:27:33;100542.25;;;9.15;100.00
31285;BME280;56605;51.516;6.742;2023-04-24T12:30:00;100549.94;;;9.26;100.00
31285;BME280;56605;51.516;6.742;2023-04-24T12:32:26;100536.63;;;9.34;100.00
31285;BME280;56605;51.516;6.742;2023-04-24T12:34:55;100551.63;;;9.35;100.00
31285;BME280;56605;51.516;6.742;2023-04-24T12:37:24;100539.63;;;9.31;100.00
31285;BME280;56605;51.516;6.742;2023-04-24T12:40:10;100538.78;;;9.39;100.00
31285;BME280;56605;51.516;6.742;2023-04-24T12:42:42;100532.84;;;9.79;100.00
31285;BME280;56605;51.516;6.742;2023-04-24T12:45:08;100548.59;;;10.22;100.00
31285;BME280;56605;51.516;6.742;2023-04-24T12:47:34;100549.72;;;10.52;100.00
31285;BME280;56605;51.516;6.742;2023-04-24T12:50:01;100548.03;;;10.43;100.00
31285;BME280;56605;51.516;6.742;2023-04-24T12:52:28;100552.44;;;10.02;100.00
31285;BME280;56605;51.516;6.742;2023-04-24T12:54:56;100550.13;;;9.91;100.00
31285;BME280;56605;51.516;6.742;2023-04-24T12:57:23;100532.66;;;9.88;100.00
31285;BME280;56605;51.516;6.742;2023-04-24T12:59:49;100552.47;;;9.94;100.00
31285;BME280;56605;51.516;6.742;2023-04-24T13:02:15;100563.63;;;9.89;100.00